This is the latest recevied weather packets stored in our database for station/object YREN. If no packets are shown the sender has not sent any weather packets the latest 10 day(s).
| Time | Temp. | Humidity | Pressure | Rain* | Wind** | Luminosity | Snow |
|---|---|---|---|---|---|---|---|
| 1788518104 | 16.67° C | 66% | 1011.5 hPa | 0 mm | - | - | - |
| 1788517204 | 15° C | 77% | 1012.1 hPa | 0 mm | - | - | - |
| 1788516305 | 15° C | 77% | 1012.1 hPa | 0 mm | - | - | - |
| 1788514504 | 14.44° C | 81% | 1012.7 hPa | 0 mm | - | - | - |
| 1788510904 | 15° C | 80% | 1012.1 hPa | 0 mm | - | - | - |
| 1788510004 | 15° C | 80% | 1012.1 hPa | 0 mm | - | - | - |
| 1788509104 | 15° C | 81% | 1012.3 hPa | 0 mm | - | - | - |
| 1788507304 | 15° C | 81% | 1012.3 hPa | 0 mm | - | - | - |
| 1788506404 | 15.56° C | 80% | 1012.4 hPa | 0 mm | - | - | - |
| 1788505504 | 15.56° C | 80% | 1012.4 hPa | 0 mm | - | - | - |
| 1788503704 | 15.56° C | 84% | 1012.9 hPa | 0.25 mm | - | - | - |
| 1788501903 | 15° C | 83% | 1013.7 hPa | 0.25 mm | - | - | - |
| 1788500104 | 15° C | 84% | 1014.4 hPa | 0 mm | - | - | - |
| 1788499204 | 16.11° C | 79% | 1014.2 hPa | 0 mm | - | - | - |
| 1788498304 | 16.11° C | 79% | 1014.2 hPa | 0 mm | - | - | - |
| 1788497404 | 16.67° C | 72% | 1014.4 hPa | 0 mm | - | - | - |
| 1788496504 | 16.67° C | 72% | 1014.4 hPa | 0 mm | - | - | - |
| 1788495604 | 16.67° C | 72% | 1014.8 hPa | 0 mm | - | - | - |
| 1788494704 | 16.67° C | 72% | 1014.8 hPa | 0 mm | - | - | - |
| 1788492904 | 16.67° C | 72% | 1015.2 hPa | 0 mm | - | - | - |
| 1788492004 | 16.11° C | 78% | 1016.3 hPa | 0.25 mm | - | - | - |
| 1788474004 | 8.89° C | 94% | 1019.4 hPa | 0 mm | - | - | - |
| 1788471304 | 8.33° C | 96% | 1019.8 hPa | 0 mm | - | - | - |
| 1788465904 | 4.44° C | 95% | 1020 hPa | 0 mm | - | - | - |
| 1788465004 | 4.44° C | 95% | 1020 hPa | 0 mm | - | - | - |
* Rain latest hour (hover to see other rain measurements)
** Current wind speed in m/s (hover to see current wind gust speed)